Plandome, New York
Current Conditions -  °F | °C
As of 12:51 AM on Wednesday 28 Jan 2015 (Local Time) from KLGA Reporting Station
Broken Clouds Broken Clouds  
Wind Chill:   Ceiling: 16000
Heat Index: 18°   Visibility: 10mi
Dew Point:   Wind: 12mph
Humidity: 68%   Direction: 340°NNW
Pressure: 29.86"   Gusts: NA
Location:  40.7935°N, 73.6884°W
Report Text: KLGA 280551Z 34010KT 10SM BKN160 M08/M13 A2986 RMK AO2 SLP112 4/008 T10781128 11033 21078 51022 $
Loading
Personal Weather Stations






























Interactive Weather Map New forecast layout! Learn more

10-Day Weather Forecast

Advertisements
Track Severe Weather on mobile